createdAt,value
2018-05-13T00:00:01.590Z,21.70
2018-05-13T00:01:01.620Z,21.10
2018-05-13T00:02:01.641Z,19.40
2018-05-13T00:03:01.656Z,20.40
2018-05-13T00:04:01.683Z,20.30
2018-05-13T00:05:01.708Z,23.30
2018-05-13T00:06:01.721Z,21.30
2018-05-13T00:08:01.772Z,23.80
2018-05-13T00:09:01.787Z,22.60
2018-05-13T00:10:01.813Z,19.80
2018-05-13T00:11:01.828Z,22.70
2018-05-13T00:12:01.851Z,21.90
2018-05-13T00:13:01.877Z,23.30
2018-05-13T00:14:01.892Z,21.80
2018-05-13T00:15:01.918Z,22.10
2018-05-13T00:16:01.943Z,20.70
2018-05-13T00:17:01.957Z,20.40
2018-05-13T00:18:01.983Z,21.40
2018-05-13T00:19:02.008Z,22.50
2018-05-13T00:20:02.023Z,21.10
2018-05-13T00:21:02.053Z,22.50
2018-05-13T00:22:02.062Z,21.60
2018-05-13T00:23:02.088Z,22.30
2018-05-13T00:24:02.115Z,24.40
2018-05-13T00:25:02.133Z,27.30
2018-05-13T00:26:02.154Z,20.60
2018-05-13T00:27:02.180Z,22.00
2018-05-13T00:28:02.194Z,19.00
2018-05-13T00:29:02.218Z,23.40
2018-05-13T00:30:02.234Z,21.40
2018-05-13T00:31:02.259Z,21.90
2018-05-13T00:32:02.284Z,22.60
2018-05-13T00:33:02.298Z,27.20
2018-05-13T00:34:02.335Z,23.80
2018-05-13T00:35:02.348Z,21.40
2018-05-13T00:36:02.364Z,22.70
2018-05-13T00:37:02.391Z,26.30
2018-05-13T00:38:02.407Z,23.40
2018-05-13T00:39:02.429Z,24.40
2018-05-13T00:40:02.454Z,23.60
2018-05-13T00:41:02.469Z,20.80
2018-05-13T00:42:02.494Z,22.10
2018-05-13T00:43:02.519Z,22.30
2018-05-13T00:44:02.534Z,25.40
2018-05-13T00:45:02.562Z,22.50
2018-05-13T00:46:02.584Z,25.80
2018-05-13T00:47:02.599Z,24.70
2018-05-13T00:48:02.625Z,22.10
2018-05-13T00:49:02.639Z,24.80
2018-05-13T00:51:02.689Z,23.00
2018-05-13T00:52:02.703Z,22.90
2018-05-13T00:53:02.730Z,22.00
2018-05-13T00:54:02.756Z,25.80
2018-05-13T00:55:02.782Z,25.90
2018-05-13T00:56:02.794Z,28.10
2018-05-13T00:57:02.820Z,26.80
2018-05-13T00:58:02.834Z,26.90
2018-05-13T00:59:02.861Z,28.30
2018-05-13T01:00:02.875Z,25.30
2018-05-13T01:01:02.913Z,25.30
2018-05-13T01:02:02.928Z,25.90
2018-05-13T01:03:02.939Z,26.60
2018-05-13T01:04:02.965Z,24.10
2018-05-13T01:05:02.991Z,27.30
2018-05-13T01:06:03.009Z,28.40
2018-05-13T01:07:03.031Z,27.00
2018-05-13T01:08:03.044Z,28.70
2018-05-13T01:09:03.070Z,27.00
2018-05-13T01:10:03.099Z,24.40
2018-05-13T01:12:03.134Z,28.40
2018-05-13T01:13:03.160Z,27.60
2018-05-13T01:14:03.177Z,26.60
2018-05-13T01:15:03.201Z,28.80
2018-05-13T01:16:03.215Z,27.70
2018-05-13T01:17:03.240Z,28.30
2018-05-13T01:18:03.265Z,29.00
2018-05-13T01:19:03.280Z,31.40
2018-05-13T01:20:03.306Z,28.70
2018-05-13T01:21:03.318Z,27.50
2018-05-13T01:22:03.358Z,28.80
2018-05-13T01:23:03.370Z,27.40
2018-05-13T01:24:03.385Z,24.70
2018-05-13T01:25:03.413Z,27.30
2018-05-13T01:26:03.425Z,28.50
2018-05-13T01:27:03.449Z,28.70
2018-05-13T01:28:03.476Z,29.10
2018-05-13T01:29:03.490Z,27.00
2018-05-13T01:30:03.518Z,30.90
2018-05-13T01:31:03.542Z,28.80
2018-05-13T01:32:03.554Z,27.70
2018-05-13T01:33:03.580Z,27.50
2018-05-13T01:34:03.594Z,27.30
2018-05-13T01:35:03.620Z,31.30
2018-05-13T01:36:03.647Z,30.00
2018-05-13T01:37:03.659Z,29.10
2018-05-13T01:39:03.699Z,27.70
2018-05-13T01:40:03.728Z,31.10
2018-05-13T01:41:03.754Z,29.20
2018-05-13T01:42:03.765Z,32.60
2018-05-13T01:43:03.790Z,33.00
2018-05-13T01:44:03.816Z,32.30
2018-05-13T01:45:03.842Z,34.90
2018-05-13T01:46:03.862Z,30.20
2018-05-13T01:48:03.895Z,34.50
2018-05-13T01:49:03.921Z,29.00
2018-05-13T01:50:04.138Z,31.00
2018-05-13T01:51:03.964Z,32.60
2018-05-13T01:52:03.975Z,32.60
2018-05-13T01:53:04.001Z,32.60
2018-05-13T01:54:04.050Z,34.30
2018-05-13T01:55:04.040Z,36.10
2018-05-13T01:56:04.268Z,33.50
2018-05-13T01:57:04.079Z,33.20
2018-05-13T01:58:04.106Z,33.10
2018-05-13T01:59:04.131Z,33.10
2018-05-13T02:00:04.150Z,33.00
2018-05-13T02:01:04.172Z,35.30
2018-05-13T02:02:04.184Z,37.20
2018-05-13T02:03:04.209Z,34.30
2018-05-13T02:04:04.236Z,32.00
2018-05-13T02:05:04.253Z,34.80
2018-05-13T02:06:04.275Z,35.20
2018-05-13T02:07:04.289Z,35.50
2018-05-13T02:08:04.315Z,33.00
2018-05-13T02:09:04.341Z,37.40
2018-05-13T02:10:04.557Z,34.30
2018-05-13T02:11:04.380Z,35.90
2018-05-13T02:12:04.400Z,35.00
2018-05-13T02:13:04.420Z,38.90
2018-05-13T02:14:04.445Z,37.90
2018-05-13T02:15:04.459Z,41.50
2018-05-13T02:16:04.485Z,34.30
2018-05-13T02:17:04.498Z,35.20
2018-05-13T02:18:04.524Z,35.20
2018-05-13T02:19:04.552Z,34.90
2018-05-13T02:20:04.565Z,36.80
2018-05-13T02:21:04.590Z,35.40
2018-05-13T02:22:04.603Z,34.40
2018-05-13T02:23:04.628Z,32.90
2018-05-13T02:24:04.655Z,38.30
2018-05-13T02:25:04.669Z,35.90
2018-05-13T02:26:04.696Z,37.10
2018-05-13T02:27:04.711Z,46.60
2018-05-13T02:28:04.747Z,40.40
2018-05-13T02:29:04.760Z,41.90
2018-05-13T02:30:04.779Z,37.10
2018-05-13T02:31:04.802Z,40.30
2018-05-13T02:32:04.814Z,45.50
2018-05-13T02:33:04.842Z,38.20
2018-05-13T02:34:04.854Z,38.70
2018-05-13T02:35:04.880Z,38.80
2018-05-13T02:36:04.906Z,43.10
2018-05-13T02:37:04.921Z,41.60
2018-05-13T02:38:04.944Z,40.80
2018-05-13T02:39:04.959Z,46.00
2018-05-13T02:40:04.986Z,40.10
2018-05-13T02:41:05.011Z,45.00
2018-05-13T02:42:05.034Z,41.20
2018-05-13T02:43:05.050Z,41.20
2018-05-13T02:44:05.063Z,35.10
2018-05-13T02:45:05.089Z,44.30
2018-05-13T02:46:05.115Z,44.60
2018-05-13T02:47:05.128Z,44.60
2018-05-13T02:48:05.155Z,45.80
2018-05-13T02:49:05.169Z,43.70
2018-05-13T02:50:05.194Z,42.90
2018-05-13T02:51:05.210Z,46.00
2018-05-13T02:53:05.258Z,46.30
2018-05-13T02:54:05.278Z,45.60
2018-05-13T02:55:05.299Z,49.60
2018-05-13T02:56:05.331Z,48.20
2018-05-13T02:57:05.338Z,46.50
2018-05-13T02:58:05.363Z,41.80
2018-05-13T02:59:05.379Z,43.20
2018-05-13T03:00:05.410Z,48.90
2018-05-13T03:01:05.417Z,45.00
2018-05-13T03:02:05.443Z,46.30
2018-05-13T03:03:05.470Z,46.90
2018-05-13T03:04:05.485Z,45.80
2018-05-13T03:05:05.508Z,47.60
2018-05-13T03:06:05.614Z,45.60
2018-05-13T03:07:05.548Z,49.50
2018-05-13T03:08:05.573Z,48.20
2018-05-13T03:09:05.587Z,55.60
2018-05-13T03:10:05.615Z,57.80
2018-05-13T03:12:05.655Z,51.40
2018-05-13T03:13:05.667Z,49.90
2018-05-13T03:14:05.693Z,58.40
2018-05-13T03:15:05.719Z,49.40
2018-05-13T03:16:05.731Z,50.70
2018-05-13T03:17:05.772Z,50.30
2018-05-13T03:18:05.771Z,50.50
2018-05-13T03:19:05.844Z,50.70
2018-05-13T03:20:06.027Z,48.90
2018-05-13T03:21:05.840Z,53.20
2018-05-13T03:22:05.865Z,55.30
2018-05-13T03:23:05.876Z,52.30
2018-05-13T03:24:05.902Z,49.70
2018-05-13T03:25:05.929Z,53.00
2018-05-13T03:26:05.940Z,61.20
2018-05-13T03:27:05.967Z,56.90
2018-05-13T03:28:05.985Z,55.20
2018-05-13T03:29:06.008Z,53.60
2018-05-13T03:30:06.034Z,62.20
2018-05-13T03:31:06.059Z,64.70
2018-05-13T03:32:06.072Z,59.20
2018-05-13T03:33:06.087Z,55.20
2018-05-13T03:34:06.113Z,63.20
2018-05-13T03:35:06.125Z,53.50
2018-05-13T03:36:06.151Z,54.00
2018-05-13T03:37:06.191Z,51.90
2018-05-13T03:38:06.190Z,62.30
2018-05-13T03:39:06.217Z,63.30
2018-05-13T03:40:06.234Z,56.40
2018-05-13T03:41:06.256Z,55.80
2018-05-13T03:42:06.282Z,59.30
2018-05-13T03:43:06.299Z,56.40
2018-05-13T03:44:06.323Z,55.30
2018-05-13T03:45:06.334Z,56.10
2018-05-13T03:46:06.360Z,54.90
2018-05-13T03:48:06.603Z,54.20
2018-05-13T03:49:06.426Z,55.90
2018-05-13T03:50:06.442Z,59.40
2018-05-13T03:51:06.478Z,54.30
2018-05-13T03:52:06.491Z,55.30
2018-05-13T03:53:06.505Z,51.70
2018-05-13T03:54:06.532Z,53.30
2018-05-13T03:55:06.544Z,51.70
2018-05-13T03:56:06.569Z,54.40
2018-05-13T03:57:06.595Z,54.20
2018-05-13T03:58:06.610Z,53.70
2018-05-13T03:59:06.635Z,55.10
2018-05-13T04:00:06.649Z,52.00
2018-05-13T04:01:06.677Z,54.80
2018-05-13T04:02:06.689Z,49.60
2018-05-13T04:03:06.716Z,55.00
2018-05-13T04:04:06.741Z,50.90
2018-05-13T04:05:06.766Z,49.60
2018-05-13T04:06:06.779Z,58.40
2018-05-13T04:07:06.795Z,52.70
2018-05-13T04:08:06.819Z,55.90
2018-05-13T04:09:06.845Z,45.20
2018-05-13T04:10:06.861Z,49.90
2018-05-13T04:11:06.884Z,47.70
2018-05-13T04:12:06.923Z,45.80
2018-05-13T04:13:06.924Z,46.40
2018-05-13T04:14:06.951Z,49.20
2018-05-13T04:15:07.046Z,44.30
2018-05-13T04:16:06.989Z,47.30
2018-05-13T04:17:07.015Z,50.30
2018-05-13T04:18:07.030Z,44.90
2018-05-13T04:19:07.055Z,51.00
2018-05-13T04:20:07.081Z,45.50
2018-05-13T04:21:07.094Z,45.90
2018-05-13T04:22:07.120Z,46.60
2018-05-13T04:23:07.134Z,41.60
2018-05-13T04:24:07.166Z,49.80
2018-05-13T04:25:07.175Z,45.80
2018-05-13T04:26:07.213Z,44.60
2018-05-13T04:27:07.226Z,49.10
2018-05-13T04:28:07.240Z,46.30
2018-05-13T04:29:07.273Z,47.10
2018-05-13T04:30:07.291Z,45.60
2018-05-13T04:31:07.306Z,49.30
2018-05-13T04:32:07.332Z,50.40
2018-05-13T04:33:07.346Z,49.90
2018-05-13T04:34:07.371Z,46.90
2018-05-13T04:35:07.396Z,47.00
2018-05-13T04:36:07.410Z,47.70
2018-05-13T04:37:07.436Z,41.20
2018-05-13T04:38:07.461Z,48.90
2018-05-13T04:39:07.476Z,45.50
2018-05-13T04:40:07.501Z,43.60
2018-05-13T04:41:07.518Z,46.90
2018-05-13T04:42:07.540Z,42.20
2018-05-13T04:43:07.565Z,45.30
2018-05-13T04:44:07.580Z,45.80
2018-05-13T04:45:07.605Z,44.20
2018-05-13T04:46:07.632Z,42.30
2018-05-13T04:47:07.644Z,46.40
2018-05-13T04:48:07.671Z,41.30
2018-05-13T04:49:07.696Z,44.80
2018-05-13T04:50:07.710Z,42.90
2018-05-13T04:51:07.737Z,41.20
2018-05-13T04:52:07.750Z,40.00
2018-05-13T04:53:07.789Z,45.20
2018-05-13T04:54:07.800Z,39.90
2018-05-13T04:55:07.816Z,41.00
2018-05-13T04:56:07.842Z,41.90
2018-05-13T04:57:07.867Z,41.20
2018-05-13T04:58:07.880Z,44.50
2018-05-13T04:59:07.907Z,41.20
2018-05-13T05:00:07.934Z,40.80
2018-05-13T05:01:07.946Z,38.30
2018-05-13T05:02:07.975Z,40.10
2018-05-13T05:03:07.999Z,39.00
2018-05-13T05:04:08.012Z,39.60
2018-05-13T05:05:08.037Z,40.30
2018-05-13T05:06:08.051Z,37.40
2018-05-13T05:07:08.076Z,37.30
2018-05-13T05:08:08.104Z,39.60
2018-05-13T05:09:08.117Z,37.80
2018-05-13T05:10:08.141Z,36.80
2018-05-13T05:11:08.168Z,38.00
2018-05-13T05:12:08.182Z,37.20
2018-05-13T05:13:08.208Z,35.80
2018-05-13T05:14:08.235Z,35.10
2018-05-13T05:15:08.246Z,36.20
2018-05-13T05:16:08.272Z,35.20
2018-05-13T05:17:08.297Z,36.20
2018-05-13T05:18:08.312Z,34.40
2018-05-13T05:19:08.339Z,35.40
2018-05-13T05:20:08.365Z,35.90
2018-05-13T05:21:08.377Z,36.30
2018-05-13T05:22:08.409Z,32.90
2018-05-13T05:23:08.429Z,35.10
2018-05-13T05:24:08.444Z,34.80
2018-05-13T05:25:08.469Z,39.20
2018-05-13T05:26:08.697Z,34.60
2018-05-13T05:27:08.511Z,32.10
2018-05-13T05:29:08.559Z,35.10
2018-05-13T05:30:08.575Z,34.30
2018-05-13T05:31:08.600Z,34.10
2018-05-13T05:32:08.626Z,34.10
2018-05-13T05:33:08.652Z,35.90
2018-05-13T05:34:08.664Z,32.40
2018-05-13T05:35:08.691Z,36.00
2018-05-13T05:36:08.716Z,29.60
2018-05-13T05:37:08.730Z,33.30
2018-05-13T05:38:08.756Z,30.90
2018-05-13T05:39:08.985Z,32.10
2018-05-13T05:40:08.797Z,33.80
2018-05-13T05:41:08.822Z,29.50
2018-05-13T05:42:08.849Z,33.60
2018-05-13T05:43:08.862Z,33.20
2018-05-13T05:44:08.887Z,29.80
2018-05-13T05:45:08.913Z,30.00
2018-05-13T05:46:09.142Z,31.80
2018-05-13T05:47:08.952Z,30.30
2018-05-13T05:48:08.978Z,31.00
2018-05-13T05:49:09.005Z,29.80
2018-05-13T05:50:09.019Z,31.80
2018-05-13T05:51:09.046Z,29.60
2018-05-13T05:52:09.070Z,29.10
2018-05-13T05:53:09.102Z,31.30
2018-05-13T05:54:09.109Z,26.50
2018-05-13T05:56:09.174Z,31.10
2018-05-13T05:57:09.253Z,28.30
2018-05-13T05:58:09.403Z,29.10
2018-05-13T05:59:09.227Z,27.80
2018-05-13T06:00:09.253Z,26.90
2018-05-13T06:01:09.266Z,26.80
2018-05-13T06:03:09.338Z,26.40
2018-05-13T06:04:09.345Z,29.80
2018-05-13T06:05:09.359Z,28.50
2018-05-13T06:06:09.384Z,26.40
2018-05-13T06:07:09.411Z,27.20
2018-05-13T06:08:09.438Z,24.30
2018-05-13T06:09:09.449Z,26.60
2018-05-13T06:10:09.475Z,24.60
2018-05-13T06:11:09.501Z,24.20
2018-05-13T06:12:09.530Z,26.40
2018-05-13T06:13:09.541Z,25.60
2018-05-13T06:14:09.567Z,23.60
2018-05-13T06:15:09.593Z,24.90
2018-05-13T06:16:09.619Z,24.50
2018-05-13T06:17:09.649Z,21.10
2018-05-13T06:19:09.685Z,22.60
2018-05-13T06:20:09.709Z,19.70
2018-05-13T06:21:09.735Z,22.50
2018-05-13T06:22:09.763Z,20.70
2018-05-13T06:23:09.775Z,21.50
2018-05-13T06:24:10.030Z,20.80
2018-05-13T06:25:09.886Z,20.60
2018-05-13T06:26:09.853Z,20.80
2018-05-13T06:27:09.880Z,24.30
2018-05-13T06:28:09.905Z,22.30
2018-05-13T06:29:09.932Z,23.00
2018-05-13T06:30:09.957Z,20.20
2018-05-13T06:31:09.981Z,20.30
2018-05-13T06:32:10.010Z,19.10
2018-05-13T06:34:10.054Z,17.00
2018-05-13T06:35:10.074Z,14.90
2018-05-13T06:36:10.101Z,19.10
2018-05-13T06:37:10.130Z,15.80
2018-05-13T06:38:10.153Z,18.40
2018-05-13T06:39:10.195Z,19.00
2018-05-13T06:40:10.567Z,16.30
2018-05-13T06:41:10.243Z,16.10
2018-05-13T06:42:10.268Z,19.30
2018-05-13T06:43:10.295Z,17.20
2018-05-13T06:44:10.524Z,18.10
2018-05-13T06:45:10.441Z,16.10
2018-05-13T06:47:10.413Z,17.60
2018-05-13T06:48:10.437Z,17.20
2018-05-13T06:49:10.476Z,15.70
2018-05-13T06:52:10.554Z,18.40
2018-05-13T06:53:10.580Z,18.80
2018-05-13T06:54:10.606Z,16.90
2018-05-13T06:55:10.631Z,14.30
2018-05-13T06:56:10.670Z,15.00
2018-05-13T06:57:10.696Z,19.90
2018-05-13T06:58:10.722Z,15.10
2018-05-13T06:59:10.753Z,15.10
2018-05-13T07:00:10.786Z,17.80
2018-05-13T07:01:10.813Z,16.30
2018-05-13T07:02:10.839Z,18.70
2018-05-13T07:03:10.877Z,15.60
2018-05-13T07:04:10.908Z,16.20
2018-05-13T07:06:10.971Z,14.70
2018-05-13T07:07:10.993Z,14.90
2018-05-13T07:08:11.023Z,15.20
2018-05-13T07:09:11.058Z,14.00
2018-05-13T07:10:11.083Z,14.10
2018-05-13T07:11:11.110Z,15.80
2018-05-13T07:12:11.149Z,14.60
2018-05-13T07:13:11.377Z,13.50
2018-05-13T07:14:11.212Z,14.60
2018-05-13T07:16:11.302Z,13.70
2018-05-13T07:17:11.303Z,12.70
2018-05-13T07:18:11.330Z,15.90
2018-05-13T07:19:11.367Z,12.60
2018-05-13T07:20:11.404Z,15.50
2018-05-13T07:21:11.433Z,13.80
2018-05-13T07:22:11.470Z,13.40
2018-05-13T07:23:11.503Z,14.30
2018-05-13T07:24:11.522Z,12.50
2018-05-13T07:25:11.562Z,15.80
2018-05-13T07:26:11.587Z,16.80
2018-05-13T07:27:11.625Z,12.80
2018-05-13T07:28:11.664Z,12.30
2018-05-13T07:29:11.694Z,15.40
2018-05-13T07:30:11.717Z,11.50
2018-05-13T07:31:11.754Z,17.30
2018-05-13T07:32:11.780Z,12.90
2018-05-13T07:33:11.819Z,14.70
2018-05-13T07:34:11.858Z,12.40
2018-05-13T07:35:11.896Z,12.00
2018-05-13T07:36:11.923Z,12.70
2018-05-13T07:37:11.948Z,16.50
2018-05-13T07:38:11.986Z,14.90
2018-05-13T07:39:12.013Z,14.80
2018-05-13T07:40:12.057Z,12.40
2018-05-13T07:41:12.090Z,12.00
2018-05-13T07:42:12.116Z,13.00
2018-05-13T07:43:12.154Z,15.00
2018-05-13T07:44:12.192Z,14.10
2018-05-13T07:45:12.218Z,14.90
2018-05-13T07:46:12.257Z,12.00
2018-05-13T07:47:12.284Z,14.50
2018-05-13T07:48:12.320Z,15.10
2018-05-13T07:49:12.361Z,15.70
2018-05-13T07:50:12.386Z,12.50
2018-05-13T07:51:12.424Z,11.40
2018-05-13T07:52:12.463Z,12.70
2018-05-13T07:53:12.500Z,13.40
2018-05-13T07:54:12.573Z,14.20
2018-05-13T07:55:12.571Z,12.40
2018-05-13T07:56:12.603Z,14.50
2018-05-13T07:57:12.631Z,12.30
2018-05-13T07:58:12.673Z,11.30
2018-05-13T07:59:12.706Z,12.50
2018-05-13T08:00:12.734Z,11.60
2018-05-13T08:01:12.771Z,15.70
2018-05-13T08:02:12.809Z,16.80
2018-05-13T08:03:12.848Z,15.60
2018-05-13T08:04:12.875Z,13.90
2018-05-13T08:05:12.912Z,12.80
2018-05-13T08:06:12.970Z,12.70
2018-05-13T08:07:12.989Z,11.20
2018-05-13T08:08:13.017Z,11.60
2018-05-13T08:09:13.054Z,13.20
2018-05-13T08:10:13.094Z,12.30
2018-05-13T08:11:13.335Z,19.20
2018-05-13T08:12:13.169Z,10.00
2018-05-13T08:13:13.196Z,12.40
2018-05-13T08:14:13.235Z,10.50
2018-05-13T08:15:13.272Z,11.10
2018-05-13T08:16:13.314Z,10.70
2018-05-13T08:17:13.362Z,12.10
2018-05-13T08:18:13.375Z,9.30
2018-05-13T08:19:13.425Z,10.50
2018-05-13T08:20:13.473Z,10.70
2018-05-13T08:21:13.490Z,10.60
2018-05-13T08:22:13.529Z,11.80
2018-05-13T08:24:13.618Z,10.80
2018-05-13T08:25:13.631Z,13.20
2018-05-13T08:26:13.670Z,11.20
2018-05-13T08:27:13.708Z,13.00
2018-05-13T08:28:13.748Z,16.00
2018-05-13T08:29:13.785Z,12.30
2018-05-13T08:30:13.812Z,11.40
2018-05-13T08:31:13.851Z,13.40
2018-05-13T08:32:13.889Z,13.80
2018-05-13T08:33:13.927Z,10.90
2018-05-13T08:34:13.953Z,12.90
2018-05-13T08:35:13.992Z,11.50
2018-05-13T08:36:14.031Z,11.80
2018-05-13T08:37:14.069Z,13.30
2018-05-13T08:38:14.108Z,12.00
2018-05-13T08:39:14.167Z,11.40
2018-05-13T08:40:14.171Z,13.30
2018-05-13T08:41:14.197Z,12.40
2018-05-13T08:42:14.236Z,11.20
2018-05-13T08:43:14.276Z,10.40
2018-05-13T08:44:14.300Z,9.90
2018-05-13T08:45:14.340Z,10.50
2018-05-13T08:46:14.378Z,16.70
2018-05-13T08:47:14.403Z,12.10
2018-05-13T08:48:14.441Z,14.50
2018-05-13T08:49:14.481Z,11.90
2018-05-13T08:50:14.505Z,15.80
2018-05-13T08:51:14.544Z,11.30
2018-05-13T08:52:14.571Z,9.20
2018-05-13T08:53:14.609Z,10.20
2018-05-13T08:54:14.647Z,8.70
2018-05-13T08:55:14.674Z,10.70
2018-05-13T08:56:14.711Z,12.10
2018-05-13T08:57:14.748Z,10.30
2018-05-13T08:58:14.777Z,10.70
2018-05-13T08:59:14.814Z,9.90
2018-05-13T09:00:14.841Z,10.60
2018-05-13T09:01:14.880Z,12.30
2018-05-13T09:02:14.917Z,9.20
2018-05-13T09:03:14.944Z,12.50
2018-05-13T09:04:14.984Z,7.90
2018-05-13T09:05:15.021Z,8.20
2018-05-13T09:07:15.091Z,12.50
2018-05-13T09:08:15.124Z,12.00
2018-05-13T09:09:15.150Z,9.90
2018-05-13T09:10:15.189Z,9.00
2018-05-13T09:11:15.226Z,7.80
2018-05-13T09:12:15.266Z,9.50
2018-05-13T09:13:15.291Z,8.50
2018-05-13T09:14:15.336Z,11.10
2018-05-13T09:15:15.368Z,7.60
2018-05-13T09:16:15.407Z,7.00
2018-05-13T09:17:15.431Z,10.00
2018-05-13T09:18:15.471Z,6.40
2018-05-13T09:19:15.510Z,8.10
2018-05-13T09:20:15.548Z,13.50
2018-05-13T09:21:15.574Z,12.10
2018-05-13T09:22:15.612Z,8.60
2018-05-13T09:23:15.652Z,8.70
2018-05-13T09:24:15.688Z,15.00
2018-05-13T09:25:15.729Z,10.90
2018-05-13T09:26:15.754Z,6.90
2018-05-13T09:27:15.806Z,8.50
2018-05-13T09:28:15.831Z,11.40
2018-05-13T09:29:15.870Z,8.70
2018-05-13T09:30:15.935Z,8.70
2018-05-13T09:31:15.935Z,6.70
2018-05-13T09:32:15.973Z,7.30
2018-05-13T09:33:16.011Z,11.30
2018-05-13T09:34:16.038Z,10.00
2018-05-13T09:35:16.076Z,7.90
2018-05-13T09:36:16.114Z,5.30
2018-05-13T09:37:16.152Z,6.30
2018-05-13T09:38:16.191Z,9.30
2018-05-13T09:39:16.229Z,8.00
2018-05-13T09:40:16.268Z,10.90
2018-05-13T09:41:16.295Z,9.50
2018-05-13T09:42:16.332Z,7.80
2018-05-13T09:43:16.373Z,6.70
2018-05-13T09:44:16.408Z,6.50
2018-05-13T09:45:16.649Z,12.00
2018-05-13T09:46:16.486Z,5.80
2018-05-13T09:47:16.524Z,8.40
2018-05-13T09:48:16.562Z,6.00
2018-05-13T09:49:16.602Z,5.80
2018-05-13T09:50:16.639Z,10.50
2018-05-13T09:51:16.733Z,9.20
2018-05-13T09:52:16.705Z,8.80
2018-05-13T09:54:16.782Z,6.50
2018-05-13T09:55:16.819Z,7.90
2018-05-13T09:56:16.859Z,6.20
2018-05-13T09:57:16.896Z,10.00
2018-05-13T09:58:16.935Z,7.80
2018-05-13T09:59:16.973Z,7.80
2018-05-13T10:01:17.051Z,7.80
2018-05-13T10:02:17.101Z,6.50
2018-05-13T10:03:17.140Z,8.00
2018-05-13T10:04:17.169Z,9.80
2018-05-13T10:05:17.206Z,10.60
2018-05-13T10:06:17.243Z,7.10
2018-05-13T10:07:17.280Z,5.90
2018-05-13T10:08:17.319Z,7.60
2018-05-13T10:09:17.358Z,11.00
2018-05-13T10:10:17.397Z,10.40
2018-05-13T10:11:17.434Z,7.20
2018-05-13T10:12:17.473Z,7.30
2018-05-13T10:14:17.550Z,10.40
2018-05-13T10:16:17.627Z,4.70
2018-05-13T10:17:17.666Z,8.30
2018-05-13T10:18:17.729Z,7.30
2018-05-13T10:19:17.755Z,7.80
2018-05-13T10:20:17.806Z,5.90
2018-05-13T10:21:17.832Z,8.90
2018-05-13T10:22:17.871Z,9.80
2018-05-13T10:23:17.921Z,5.50
2018-05-13T10:24:17.960Z,7.90
2018-05-13T10:25:17.998Z,7.90
2018-05-13T10:26:18.037Z,6.30
2018-05-13T10:27:18.109Z,8.40
2018-05-13T10:28:18.475Z,5.80
2018-05-13T10:29:18.168Z,6.30
2018-05-13T10:30:18.222Z,7.50
2018-05-13T10:31:18.297Z,6.20
2018-05-13T10:32:18.292Z,8.40
2018-05-13T10:33:18.331Z,10.30
2018-05-13T10:34:18.372Z,6.80
2018-05-13T10:35:18.468Z,9.10
2018-05-13T10:36:18.562Z,7.40
2018-05-13T10:37:18.497Z,7.80
2018-05-13T10:38:18.540Z,8.80
2018-05-13T10:39:18.587Z,6.60
2018-05-13T10:40:18.626Z,8.70
2018-05-13T10:41:18.664Z,6.90
2018-05-13T10:42:18.704Z,6.60
2018-05-13T10:43:18.756Z,4.60
2018-05-13T10:44:18.797Z,8.50
2018-05-13T10:45:18.841Z,8.60
2018-05-13T10:46:18.869Z,4.60
2018-05-13T10:47:18.919Z,6.80
2018-05-13T10:48:18.959Z,4.50
2018-05-13T10:49:18.996Z,9.80
2018-05-13T10:50:19.048Z,7.40
2018-05-13T10:51:19.086Z,8.60
2018-05-13T10:52:19.124Z,5.60
2018-05-13T10:53:19.176Z,6.50
2018-05-13T10:54:19.216Z,7.20
2018-05-13T10:56:19.505Z,7.60
2018-05-13T10:57:19.341Z,7.80
2018-05-13T10:58:19.383Z,6.30
2018-05-13T10:59:19.430Z,7.60
2018-05-13T11:00:19.474Z,7.20
2018-05-13T11:01:19.507Z,5.40
2018-05-13T11:02:19.568Z,6.40
2018-05-13T11:06:19.730Z,7.00
2018-05-13T11:07:19.779Z,3.90
2018-05-13T11:08:19.831Z,8.20
2018-05-13T11:09:19.853Z,5.50
2018-05-13T11:10:19.982Z,6.70
2018-05-13T11:11:19.942Z,7.50
2018-05-13T11:12:19.982Z,7.90
2018-05-13T11:13:20.020Z,6.90
2018-05-13T11:15:20.112Z,6.80
2018-05-13T11:16:20.160Z,6.10
2018-05-13T11:17:20.199Z,8.50
2018-05-13T11:18:20.238Z,9.60
2018-05-13T11:19:20.289Z,6.20
2018-05-13T11:21:20.378Z,6.80
2018-05-13T11:22:20.418Z,8.00
2018-05-13T11:23:20.502Z,6.50
2018-05-13T11:24:20.505Z,6.40
2018-05-13T11:25:20.893Z,3.60
2018-05-13T11:26:20.797Z,5.60
2018-05-13T11:27:20.634Z,5.00
2018-05-13T11:28:20.685Z,3.10
2018-05-13T11:29:20.724Z,6.60
2018-05-13T11:30:20.775Z,4.50
2018-05-13T11:31:20.812Z,7.40
2018-05-13T11:32:20.852Z,8.80
2018-05-13T11:33:20.902Z,8.10
2018-05-13T11:34:20.940Z,6.50
2018-05-13T11:35:21.003Z,7.70
2018-05-13T11:36:21.031Z,4.90
2018-05-13T11:37:21.082Z,4.60
2018-05-13T11:38:21.119Z,5.70
2018-05-13T11:39:21.170Z,5.40
2018-05-13T11:40:21.209Z,7.20
2018-05-13T11:41:21.260Z,5.80
2018-05-13T11:42:21.299Z,4.80
2018-05-13T11:43:21.338Z,7.40
2018-05-13T11:44:21.388Z,11.70
2018-05-13T11:45:21.425Z,5.70
2018-05-13T11:46:21.476Z,7.60
2018-05-13T11:47:21.516Z,5.90
2018-05-13T11:48:21.567Z,9.10
2018-05-13T11:49:21.605Z,4.70
2018-05-13T11:50:21.656Z,5.60
2018-05-13T11:51:21.694Z,6.90
2018-05-13T11:52:21.732Z,3.20
2018-05-13T11:53:21.784Z,7.60
2018-05-13T11:54:21.823Z,6.40
2018-05-13T11:55:21.876Z,6.30
2018-05-13T11:56:21.923Z,5.80
2018-05-13T11:57:21.962Z,4.30
2018-05-13T11:58:22.004Z,5.80
2018-05-13T11:59:22.039Z,5.10
2018-05-13T12:00:22.090Z,5.40
2018-05-13T12:01:22.130Z,7.00
2018-05-13T12:02:22.187Z,3.80
2018-05-13T12:03:22.218Z,3.70
2018-05-13T12:04:22.283Z,7.20
2018-05-13T12:05:22.308Z,10.50
2018-05-13T12:06:22.346Z,7.60
2018-05-13T12:07:22.408Z,7.00
2018-05-13T12:08:22.508Z,5.40
2018-05-13T12:09:22.492Z,5.80
2018-05-13T12:10:22.544Z,6.80
2018-05-13T12:11:22.771Z,4.30
2018-05-13T12:12:22.618Z,9.50
2018-05-13T12:14:22.703Z,7.30
2018-05-13T12:15:22.743Z,5.30
2018-05-13T12:16:22.782Z,5.50
2018-05-13T12:17:22.832Z,4.20
2018-05-13T12:18:23.422Z,7.00
2018-05-13T12:19:22.912Z,5.90
2018-05-13T12:20:22.960Z,5.90
2018-05-13T12:21:22.998Z,5.20
2018-05-13T12:22:23.050Z,4.80
2018-05-13T12:24:23.128Z,4.90
2018-05-13T12:25:23.178Z,5.90
2018-05-13T12:26:23.579Z,3.50
2018-05-13T12:27:23.255Z,8.30
2018-05-13T12:28:23.309Z,4.60
2018-05-13T12:29:23.344Z,3.30
2018-05-13T12:30:23.396Z,6.10
2018-05-13T12:31:23.433Z,4.90
2018-05-13T12:32:23.471Z,7.50
2018-05-13T12:33:23.523Z,4.90
2018-05-13T12:34:23.561Z,6.10
2018-05-13T12:35:23.803Z,5.70
2018-05-13T12:36:23.650Z,4.80
2018-05-13T12:37:23.690Z,5.20
2018-05-13T12:38:23.741Z,8.20
2018-05-13T12:39:23.782Z,6.70
2018-05-13T12:40:23.822Z,7.00
2018-05-13T12:41:23.867Z,7.00
2018-05-13T12:42:24.255Z,6.00
2018-05-13T12:43:23.957Z,6.20
2018-05-13T12:44:23.998Z,5.40
2018-05-13T12:45:24.034Z,5.50
2018-05-13T12:46:24.085Z,5.40
2018-05-13T12:47:24.124Z,6.70
2018-05-13T12:48:24.161Z,6.40
2018-05-13T12:49:24.212Z,6.30
2018-05-13T12:50:24.251Z,7.10
2018-05-13T12:51:24.293Z,6.20
2018-05-13T12:52:24.342Z,4.30
2018-05-13T12:53:24.379Z,5.90
2018-05-13T12:54:24.417Z,5.30
2018-05-13T12:55:24.468Z,6.10
2018-05-13T12:56:24.608Z,6.20
2018-05-13T12:57:24.546Z,4.70
2018-05-13T12:58:24.655Z,6.10
2018-05-13T13:00:24.673Z,4.90
2018-05-13T13:01:24.737Z,6.50
2018-05-13T13:02:24.767Z,7.30
2018-05-13T13:03:24.803Z,5.20
2018-05-13T13:04:24.852Z,5.80
2018-05-13T13:05:24.890Z,4.50
2018-05-13T13:06:24.933Z,7.10
2018-05-13T13:07:24.968Z,4.00
2018-05-13T13:08:25.020Z,7.00
2018-05-13T13:09:25.113Z,5.60
2018-05-13T13:10:25.095Z,5.20
2018-05-13T13:11:25.349Z,7.50
2018-05-13T13:12:25.185Z,4.00
2018-05-13T13:13:25.223Z,4.60
2018-05-13T13:14:25.275Z,7.30
2018-05-13T13:15:25.324Z,5.90
2018-05-13T13:16:25.350Z,3.90
2018-05-13T13:17:25.390Z,5.90
2018-05-13T13:18:25.440Z,7.40
2018-05-13T13:19:25.485Z,5.80
2018-05-13T13:20:25.745Z,4.60
2018-05-13T13:21:25.582Z,6.00
2018-05-13T13:22:25.811Z,7.20
2018-05-13T13:23:25.645Z,7.30
2018-05-13T13:24:25.684Z,7.20
2018-05-13T13:25:25.735Z,4.20
2018-05-13T13:26:25.773Z,6.30
2018-05-13T13:27:26.014Z,5.40
2018-05-13T13:29:25.890Z,7.60
2018-05-13T13:30:26.002Z,7.40
2018-05-13T13:31:25.977Z,8.00
2018-05-13T13:32:26.018Z,7.60
2018-05-13T13:33:26.055Z,4.80
2018-05-13T13:34:26.106Z,5.30